sensor_id;sensor_type;location;lat;lon;timestamp;P1;durP1;ratioP1;P2;durP2;ratioP2
15624;SDS011;7912;51.376;6.126;2023-07-13T00:12:19;4.40;;;1.67;;
15624;SDS011;7912;51.376;6.126;2023-07-13T00:18:07;4.33;;;1.80;;
15624;SDS011;7912;51.376;6.126;2023-07-13T00:20:34;2.60;;;1.50;;
15624;SDS011;7912;51.376;6.126;2023-07-13T00:23:01;3.60;;;1.70;;
15624;SDS011;7912;51.376;6.126;2023-07-13T00:25:30;4.27;;;1.90;;
15624;SDS011;7912;51.376;6.126;2023-07-13T00:27:57;4.43;;;1.70;;
15624;SDS011;7912;51.376;6.126;2023-07-13T00:30:24;3.37;;;1.67;;
15624;SDS011;7912;51.376;6.126;2023-07-13T00:32:54;3.13;;;1.73;;
15624;SDS011;7912;51.376;6.126;2023-07-13T00:35:41;4.23;;;1.80;;
15624;SDS011;7912;51.376;6.126;2023-07-13T00:38:11;3.70;;;1.50;;
15624;SDS011;7912;51.376;6.126;2023-07-13T00:40:38;4.13;;;2.00;;
15624;SDS011;7912;51.376;6.126;2023-07-13T00:43:16;3.03;;;1.60;;
15624;SDS011;7912;51.376;6.126;2023-07-13T00:48:21;3.10;;;1.77;;
15624;SDS011;7912;51.376;6.126;2023-07-13T00:50:54;3.07;;;1.70;;
15624;SDS011;7912;51.376;6.126;2023-07-13T00:53:26;4.60;;;1.90;;
15624;SDS011;7912;51.376;6.126;2023-07-13T00:55:57;2.13;;;1.60;;
15624;SDS011;7912;51.376;6.126;2023-07-13T00:58:25;4.50;;;1.70;;
15624;SDS011;7912;51.376;6.126;2023-07-13T01:00:55;4.93;;;1.80;;
15624;SDS011;7912;51.376;6.126;2023-07-13T01:03:22;4.63;;;1.80;;
15624;SDS011;7912;51.376;6.126;2023-07-13T01:05:50;4.70;;;1.97;;
15624;SDS011;7912;51.376;6.126;2023-07-13T01:08:21;4.73;;;2.00;;
15624;SDS011;7912;51.376;6.126;2023-07-13T01:10:56;3.53;;;1.57;;
15624;SDS011;7912;51.376;6.126;2023-07-13T01:13:24;3.47;;;1.70;;
15624;SDS011;7912;51.376;6.126;2023-07-13T01:15:53;6.13;;;2.00;;
15624;SDS011;7912;51.376;6.126;2023-07-13T01:18:25;4.63;;;2.07;;
15624;SDS011;7912;51.376;6.126;2023-07-13T01:20:56;4.60;;;1.93;;
15624;SDS011;7912;51.376;6.126;2023-07-13T01:23:26;4.17;;;1.70;;
15624;SDS011;7912;51.376;6.126;2023-07-13T01:25:55;3.87;;;1.50;;
15624;SDS011;7912;51.376;6.126;2023-07-13T01:28:23;3.70;;;1.77;;
15624;SDS011;7912;51.376;6.126;2023-07-13T01:30:56;3.50;;;1.83;;
15624;SDS011;7912;51.376;6.126;2023-07-13T01:33:25;4.07;;;1.70;;
15624;SDS011;7912;51.376;6.126;2023-07-13T01:35:53;3.57;;;1.77;;
15624;SDS011;7912;51.376;6.126;2023-07-13T01:38:24;3.97;;;2.00;;
15624;SDS011;7912;51.376;6.126;2023-07-13T01:40:52;3.53;;;1.73;;
15624;SDS011;7912;51.376;6.126;2023-07-13T01:43:22;4.27;;;1.70;;
15624;SDS011;7912;51.376;6.126;2023-07-13T01:45:49;4.57;;;1.80;;
15624;SDS011;7912;51.376;6.126;2023-07-13T01:48:26;4.93;;;1.90;;
15624;SDS011;7912;51.376;6.126;2023-07-13T01:50:53;4.17;;;1.60;;
15624;SDS011;7912;51.376;6.126;2023-07-13T01:53:20;4.50;;;1.87;;
15624;SDS011;7912;51.376;6.126;2023-07-13T01:55:48;3.90;;;2.10;;
15624;SDS011;7912;51.376;6.126;2023-07-13T01:58:15;6.47;;;1.87;;
15624;SDS011;7912;51.376;6.126;2023-07-13T02:00:43;4.17;;;2.00;;
15624;SDS011;7912;51.376;6.126;2023-07-13T02:03:10;5.13;;;2.00;;
15624;SDS011;7912;51.376;6.126;2023-07-13T02:05:37;3.80;;;1.80;;
15624;SDS011;7912;51.376;6.126;2023-07-13T02:08:04;4.93;;;2.17;;
15624;SDS011;7912;51.376;6.126;2023-07-13T02:10:31;5.93;;;2.20;;
15624;SDS011;7912;51.376;6.126;2023-07-13T02:12:59;4.63;;;1.80;;
15624;SDS011;7912;51.376;6.126;2023-07-13T02:15:26;2.73;;;1.70;;
15624;SDS011;7912;51.376;6.126;2023-07-13T02:17:53;3.93;;;1.90;;
15624;SDS011;7912;51.376;6.126;2023-07-13T02:20:20;2.20;;;1.53;;
15624;SDS011;7912;51.376;6.126;2023-07-13T02:22:48;3.13;;;2.00;;
15624;SDS011;7912;51.376;6.126;2023-07-13T02:25:15;3.20;;;1.80;;
15624;SDS011;7912;51.376;6.126;2023-07-13T02:27:42;2.97;;;1.77;;
15624;SDS011;7912;51.376;6.126;2023-07-13T02:30:10;3.60;;;1.90;;
15624;SDS011;7912;51.376;6.126;2023-07-13T02:32:37;4.57;;;1.70;;
15624;SDS011;7912;51.376;6.126;2023-07-13T02:35:05;3.73;;;1.90;;
15624;SDS011;7912;51.376;6.126;2023-07-13T02:37:32;4.70;;;1.97;;
15624;SDS011;7912;51.376;6.126;2023-07-13T02:40:00;3.20;;;1.83;;
15624;SDS011;7912;51.376;6.126;2023-07-13T02:42:27;4.67;;;1.93;;
15624;SDS011;7912;51.376;6.126;2023-07-13T02:44:54;3.90;;;2.03;;
15624;SDS011;7912;51.376;6.126;2023-07-13T02:47:22;6.50;;;2.27;;
15624;SDS011;7912;51.376;6.126;2023-07-13T02:49:49;3.80;;;2.00;;
15624;SDS011;7912;51.376;6.126;2023-07-13T02:52:16;4.73;;;2.00;;
15624;SDS011;7912;51.376;6.126;2023-07-13T02:54:43;4.50;;;2.10;;
15624;SDS011;7912;51.376;6.126;2023-07-13T02:57:11;5.97;;;2.10;;
15624;SDS011;7912;51.376;6.126;2023-07-13T02:59:38;3.30;;;1.90;;
15624;SDS011;7912;51.376;6.126;2023-07-13T03:02:05;4.93;;;1.90;;
15624;SDS011;7912;51.376;6.126;2023-07-13T03:04:34;3.83;;;1.90;;
15624;SDS011;7912;51.376;6.126;2023-07-13T03:07:07;4.27;;;2.00;;
15624;SDS011;7912;51.376;6.126;2023-07-13T03:09:34;5.33;;;2.10;;
15624;SDS011;7912;51.376;6.126;2023-07-13T03:12:02;2.93;;;1.77;;
15624;SDS011;7912;51.376;6.126;2023-07-13T03:14:30;4.33;;;1.77;;
15624;SDS011;7912;51.376;6.126;2023-07-13T03:16:57;4.20;;;1.97;;
15624;SDS011;7912;51.376;6.126;2023-07-13T03:19:24;5.10;;;1.90;;
15624;SDS011;7912;51.376;6.126;2023-07-13T03:21:52;3.53;;;1.70;;
15624;SDS011;7912;51.376;6.126;2023-07-13T03:24:20;2.80;;;1.73;;
15624;SDS011;7912;51.376;6.126;2023-07-13T03:26:47;4.80;;;2.37;;
15624;SDS011;7912;51.376;6.126;2023-07-13T03:29:14;3.47;;;1.90;;
15624;SDS011;7912;51.376;6.126;2023-07-13T03:31:42;4.47;;;2.40;;
15624;SDS011;7912;51.376;6.126;2023-07-13T03:34:09;5.47;;;2.23;;
15624;SDS011;7912;51.376;6.126;2023-07-13T03:36:36;4.60;;;2.10;;
15624;SDS011;7912;51.376;6.126;2023-07-13T03:39:04;5.10;;;2.00;;
15624;SDS011;7912;51.376;6.126;2023-07-13T03:41:35;5.17;;;2.30;;
15624;SDS011;7912;51.376;6.126;2023-07-13T03:44:03;5.00;;;2.00;;
15624;SDS011;7912;51.376;6.126;2023-07-13T03:46:31;2.53;;;1.60;;
15624;SDS011;7912;51.376;6.126;2023-07-13T03:48:59;6.23;;;2.07;;
15624;SDS011;7912;51.376;6.126;2023-07-13T03:51:27;4.77;;;2.20;;
15624;SDS011;7912;51.376;6.126;2023-07-13T03:53:54;3.93;;;1.90;;
15624;SDS011;7912;51.376;6.126;2023-07-13T03:56:22;3.67;;;2.30;;
15624;SDS011;7912;51.376;6.126;2023-07-13T03:58:50;2.90;;;1.90;;
15624;SDS011;7912;51.376;6.126;2023-07-13T04:01:18;3.70;;;2.03;;
15624;SDS011;7912;51.376;6.126;2023-07-13T04:03:48;4.47;;;2.20;;
15624;SDS011;7912;51.376;6.126;2023-07-13T04:06:37;3.53;;;2.00;;
15624;SDS011;7912;51.376;6.126;2023-07-13T04:09:03;4.97;;;2.23;;
15624;SDS011;7912;51.376;6.126;2023-07-13T04:11:32;4.03;;;2.13;;
15624;SDS011;7912;51.376;6.126;2023-07-13T04:14:02;5.63;;;2.37;;
15624;SDS011;7912;51.376;6.126;2023-07-13T04:16:30;4.50;;;2.37;;
15624;SDS011;7912;51.376;6.126;2023-07-13T04:18:58;4.40;;;2.20;;
15624;SDS011;7912;51.376;6.126;2023-07-13T04:21:29;4.50;;;2.23;;
15624;SDS011;7912;51.376;6.126;2023-07-13T04:23:57;7.10;;;3.03;;
15624;SDS011;7912;51.376;6.126;2023-07-13T04:26:25;3.80;;;1.93;;
15624;SDS011;7912;51.376;6.126;2023-07-13T04:28:52;4.43;;;2.50;;
15624;SDS011;7912;51.376;6.126;2023-07-13T04:31:19;6.27;;;2.63;;
15624;SDS011;7912;51.376;6.126;2023-07-13T04:33:48;3.97;;;2.47;;
15624;SDS011;7912;51.376;6.126;2023-07-13T04:36:17;5.17;;;2.40;;
15624;SDS011;7912;51.376;6.126;2023-07-13T04:38:44;7.03;;;2.73;;
15624;SDS011;7912;51.376;6.126;2023-07-13T04:41:12;6.10;;;2.33;;
15624;SDS011;7912;51.376;6.126;2023-07-13T04:43:41;5.47;;;2.73;;
15624;SDS011;7912;51.376;6.126;2023-07-13T04:46:11;3.97;;;2.10;;
15624;SDS011;7912;51.376;6.126;2023-07-13T04:48:42;5.00;;;2.70;;
15624;SDS011;7912;51.376;6.126;2023-07-13T04:51:09;6.10;;;2.60;;
15624;SDS011;7912;51.376;6.126;2023-07-13T04:53:38;5.50;;;2.60;;
15624;SDS011;7912;51.376;6.126;2023-07-13T04:56:05;6.80;;;2.47;;
15624;SDS011;7912;51.376;6.126;2023-07-13T04:58:33;5.17;;;2.67;;
15624;SDS011;7912;51.376;6.126;2023-07-13T05:01:02;8.00;;;2.80;;
15624;SDS011;7912;51.376;6.126;2023-07-13T05:03:32;5.03;;;3.00;;
15624;SDS011;7912;51.376;6.126;2023-07-13T05:06:02;7.40;;;2.70;;
15624;SDS011;7912;51.376;6.126;2023-07-13T05:08:32;8.33;;;2.90;;
15624;SDS011;7912;51.376;6.126;2023-07-13T05:11:00;6.33;;;2.40;;
15624;SDS011;7912;51.376;6.126;2023-07-13T05:13:29;5.20;;;2.43;;
15624;SDS011;7912;51.376;6.126;2023-07-13T05:15:58;5.63;;;2.50;;
15624;SDS011;7912;51.376;6.126;2023-07-13T05:18:29;5.90;;;2.67;;
15624;SDS011;7912;51.376;6.126;2023-07-13T05:21:03;4.73;;;2.57;;
15624;SDS011;7912;51.376;6.126;2023-07-13T05:23:35;5.70;;;2.80;;
15624;SDS011;7912;51.376;6.126;2023-07-13T05:26:04;3.77;;;2.90;;
15624;SDS011;7912;51.376;6.126;2023-07-13T05:28:35;5.10;;;2.93;;
15624;SDS011;7912;51.376;6.126;2023-07-13T05:31:04;8.10;;;3.27;;
15624;SDS011;7912;51.376;6.126;2023-07-13T05:33:35;5.67;;;2.90;;
15624;SDS011;7912;51.376;6.126;2023-07-13T05:36:05;5.20;;;2.73;;
15624;SDS011;7912;51.376;6.126;2023-07-13T05:38:36;4.07;;;2.43;;
15624;SDS011;7912;51.376;6.126;2023-07-13T05:41:04;7.63;;;2.90;;
15624;SDS011;7912;51.376;6.126;2023-07-13T05:43:32;6.53;;;2.80;;
15624;SDS011;7912;51.376;6.126;2023-07-13T05:46:00;8.53;;;3.17;;
15624;SDS011;7912;51.376;6.126;2023-07-13T05:48:27;4.10;;;2.90;;
15624;SDS011;7912;51.376;6.126;2023-07-13T05:50:54;7.37;;;3.33;;
15624;SDS011;7912;51.376;6.126;2023-07-13T05:53:21;8.13;;;3.47;;
15624;SDS011;7912;51.376;6.126;2023-07-13T05:55:49;5.87;;;2.90;;
15624;SDS011;7912;51.376;6.126;2023-07-13T05:58:17;6.03;;;3.00;;
15624;SDS011;7912;51.376;6.126;2023-07-13T06:00:46;6.00;;;3.20;;
15624;SDS011;7912;51.376;6.126;2023-07-13T06:03:14;6.30;;;3.70;;
15624;SDS011;7912;51.376;6.126;2023-07-13T06:05:42;7.10;;;3.17;;
15624;SDS011;7912;51.376;6.126;2023-07-13T06:08:10;7.40;;;3.67;;
15624;SDS011;7912;51.376;6.126;2023-07-13T06:10:37;6.90;;;3.80;;
15624;SDS011;7912;51.376;6.126;2023-07-13T06:13:04;8.77;;;3.53;;
15624;SDS011;7912;51.376;6.126;2023-07-13T06:15:32;11.13;;;3.73;;
15624;SDS011;7912;51.376;6.126;2023-07-13T06:18:00;7.27;;;4.07;;
15624;SDS011;7912;51.376;6.126;2023-07-13T06:20:27;7.13;;;3.93;;
15624;SDS011;7912;51.376;6.126;2023-07-13T06:22:56;8.17;;;3.53;;
15624;SDS011;7912;51.376;6.126;2023-07-13T06:25:24;9.80;;;3.67;;
15624;SDS011;7912;51.376;6.126;2023-07-13T06:27:53;6.47;;;3.70;;
15624;SDS011;7912;51.376;6.126;2023-07-13T06:33:44;6.33;;;3.43;;
15624;SDS011;7912;51.376;6.126;2023-07-13T06:36:11;8.17;;;3.33;;
15624;SDS011;7912;51.376;6.126;2023-07-13T06:38:39;9.57;;;3.93;;
15624;SDS011;7912;51.376;6.126;2023-07-13T06:41:07;8.77;;;4.00;;
15624;SDS011;7912;51.376;6.126;2023-07-13T06:43:35;7.10;;;3.80;;
15624;SDS011;7912;51.376;6.126;2023-07-13T06:46:03;6.17;;;3.93;;
15624;SDS011;7912;51.376;6.126;2023-07-13T06:48:31;7.83;;;3.60;;
15624;SDS011;7912;51.376;6.126;2023-07-13T06:50:58;5.53;;;3.70;;
15624;SDS011;7912;51.376;6.126;2023-07-13T06:53:26;8.50;;;3.90;;
15624;SDS011;7912;51.376;6.126;2023-07-13T06:55:53;7.33;;;4.00;;
15624;SDS011;7912;51.376;6.126;2023-07-13T06:58:22;7.47;;;3.60;;
15624;SDS011;7912;51.376;6.126;2023-07-13T07:04:50;5.40;;;3.67;;
15624;SDS011;7912;51.376;6.126;2023-07-13T07:07:17;6.00;;;3.53;;
15624;SDS011;7912;51.376;6.126;2023-07-13T07:09:44;7.40;;;3.40;;
15624;SDS011;7912;51.376;6.126;2023-07-13T07:12:15;6.53;;;3.27;;
15624;SDS011;7912;51.376;6.126;2023-07-13T07:14:42;6.17;;;3.30;;
15624;SDS011;7912;51.376;6.126;2023-07-13T07:17:09;7.73;;;3.23;;
15624;SDS011;7912;51.376;6.126;2023-07-13T07:19:37;5.43;;;3.00;;
15624;SDS011;7912;51.376;6.126;2023-07-13T07:22:05;5.30;;;3.27;;
15624;SDS011;7912;51.376;6.126;2023-07-13T07:24:32;8.27;;;3.43;;
15624;SDS011;7912;51.376;6.126;2023-07-13T07:27:01;7.13;;;3.60;;
15624;SDS011;7912;51.376;6.126;2023-07-13T07:29:31;8.17;;;3.70;;
15624;SDS011;7912;51.376;6.126;2023-07-13T07:32:01;4.83;;;3.53;;
15624;SDS011;7912;51.376;6.126;2023-07-13T07:34:43;6.10;;;3.47;;
15624;SDS011;7912;51.376;6.126;2023-07-13T07:37:12;6.67;;;3.50;;
15624;SDS011;7912;51.376;6.126;2023-07-13T07:39:43;5.73;;;3.90;;
15624;SDS011;7912;51.376;6.126;2023-07-13T07:42:31;7.47;;;3.83;;
15624;SDS011;7912;51.376;6.126;2023-07-13T07:44:58;7.63;;;4.60;;
15624;SDS011;7912;51.376;6.126;2023-07-13T07:47:27;7.90;;;4.20;;
15624;SDS011;7912;51.376;6.126;2023-07-13T07:49:54;7.20;;;3.73;;
15624;SDS011;7912;51.376;6.126;2023-07-13T07:52:24;5.97;;;4.30;;
15624;SDS011;7912;51.376;6.126;2023-07-13T07:54:51;6.67;;;3.90;;
15624;SDS011;7912;51.376;6.126;2023-07-13T07:57:21;8.07;;;3.80;;
15624;SDS011;7912;51.376;6.126;2023-07-13T07:59:51;6.27;;;3.50;;
15624;SDS011;7912;51.376;6.126;2023-07-13T08:02:22;8.57;;;4.00;;
15624;SDS011;7912;51.376;6.126;2023-07-13T08:04:52;7.67;;;4.30;;
15624;SDS011;7912;51.376;6.126;2023-07-13T08:07:22;8.50;;;4.00;;
15624;SDS011;7912;51.376;6.126;2023-07-13T08:09:53;10.13;;;4.03;;
15624;SDS011;7912;51.376;6.126;2023-07-13T08:12:21;7.30;;;4.00;;
15624;SDS011;7912;51.376;6.126;2023-07-13T08:14:52;8.77;;;4.07;;
15624;SDS011;7912;51.376;6.126;2023-07-13T08:17:27;6.73;;;3.70;;
15624;SDS011;7912;51.376;6.126;2023-07-13T08:19:54;6.07;;;3.70;;
15624;SDS011;7912;51.376;6.126;2023-07-13T08:22:22;6.57;;;3.53;;
15624;SDS011;7912;51.376;6.126;2023-07-13T08:24:49;8.40;;;3.73;;
15624;SDS011;7912;51.376;6.126;2023-07-13T08:27:23;6.07;;;3.90;;
15624;SDS011;7912;51.376;6.126;2023-07-13T08:29:53;7.87;;;3.67;;
15624;SDS011;7912;51.376;6.126;2023-07-13T08:32:21;6.40;;;3.83;;
15624;SDS011;7912;51.376;6.126;2023-07-13T08:38:13;5.60;;;4.10;;
15624;SDS011;7912;51.376;6.126;2023-07-13T08:40:42;7.33;;;3.80;;
15624;SDS011;7912;51.376;6.126;2023-07-13T08:43:16;6.27;;;3.70;;
15624;SDS011;7912;51.376;6.126;2023-07-13T08:45:50;6.20;;;3.57;;
15624;SDS011;7912;51.376;6.126;2023-07-13T08:48:58;8.33;;;3.70;;
15624;SDS011;7912;51.376;6.126;2023-07-13T08:58:24;5.93;;;3.90;;
15624;SDS011;7912;51.376;6.126;2023-07-13T09:03:56;7.87;;;3.43;;
15624;SDS011;7912;51.376;6.126;2023-07-13T09:12:21;6.37;;;3.40;;
15624;SDS011;7912;51.376;6.126;2023-07-13T09:15:02;4.47;;;3.40;;
15624;SDS011;7912;51.376;6.126;2023-07-13T09:17:44;7.37;;;3.23;;
15624;SDS011;7912;51.376;6.126;2023-07-13T09:20:26;6.20;;;2.87;;
15624;SDS011;7912;51.376;6.126;2023-07-13T09:23:11;6.47;;;3.47;;
15624;SDS011;7912;51.376;6.126;2023-07-13T09:25:47;8.53;;;3.10;;
15624;SDS011;7912;51.376;6.126;2023-07-13T09:28:26;5.63;;;3.03;;
15624;SDS011;7912;51.376;6.126;2023-07-13T09:34:09;4.53;;;2.53;;
15624;SDS011;7912;51.376;6.126;2023-07-13T09:36:39;5.27;;;2.70;;
15624;SDS011;7912;51.376;6.126;2023-07-13T09:42:03;5.23;;;3.10;;
15624;SDS011;7912;51.376;6.126;2023-07-13T09:47:25;5.33;;;3.00;;
15624;SDS011;7912;51.376;6.126;2023-07-13T09:50:00;5.47;;;2.73;;
15624;SDS011;7912;51.376;6.126;2023-07-13T09:52:43;6.37;;;2.70;;
15624;SDS011;7912;51.376;6.126;2023-07-13T09:57:55;5.53;;;2.40;;
15624;SDS011;7912;51.376;6.126;2023-07-13T10:00:29;4.40;;;2.80;;
15624;SDS011;7912;51.376;6.126;2023-07-13T10:02:58;3.90;;;2.70;;
15624;SDS011;7912;51.376;6.126;2023-07-13T10:05:52;4.10;;;3.20;;
15624;SDS011;7912;51.376;6.126;2023-07-13T10:08:22;6.73;;;3.17;;
15624;SDS011;7912;51.376;6.126;2023-07-13T10:10:58;6.17;;;2.67;;
15624;SDS011;7912;51.376;6.126;2023-07-13T10:13:56;5.70;;;2.87;;
15624;SDS011;7912;51.376;6.126;2023-07-13T10:16:24;4.40;;;2.23;;
15624;SDS011;7912;51.376;6.126;2023-07-13T10:19:02;3.33;;;2.30;;
15624;SDS011;7912;51.376;6.126;2023-07-13T10:21:45;5.87;;;2.77;;
15624;SDS011;7912;51.376;6.126;2023-07-13T10:24:24;5.77;;;2.70;;
15624;SDS011;7912;51.376;6.126;2023-07-13T10:30:22;4.40;;;2.20;;
15624;SDS011;7912;51.376;6.126;2023-07-13T10:33:02;4.13;;;2.20;;
15624;SDS011;7912;51.376;6.126;2023-07-13T10:35:37;4.40;;;2.20;;
15624;SDS011;7912;51.376;6.126;2023-07-13T10:38:14;3.67;;;2.27;;
15624;SDS011;7912;51.376;6.126;2023-07-13T10:41:05;4.50;;;2.30;;
15624;SDS011;7912;51.376;6.126;2023-07-13T10:43:43;2.90;;;2.10;;
15624;SDS011;7912;51.376;6.126;2023-07-13T10:46:19;3.13;;;2.00;;
15624;SDS011;7912;51.376;6.126;2023-07-13T10:48:51;4.43;;;2.23;;
15624;SDS011;7912;51.376;6.126;2023-07-13T10:51:24;5.70;;;2.20;;
15624;SDS011;7912;51.376;6.126;2023-07-13T10:56:53;3.83;;;2.47;;
15624;SDS011;7912;51.376;6.126;2023-07-13T10:59:38;4.10;;;2.50;;
15624;SDS011;7912;51.376;6.126;2023-07-13T11:04:56;4.40;;;2.17;;
15624;SDS011;7912;51.376;6.126;2023-07-13T11:07:28;5.60;;;2.33;;
15624;SDS011;7912;51.376;6.126;2023-07-13T11:09:59;2.63;;;1.70;;
15624;SDS011;7912;51.376;6.126;2023-07-13T11:15:26;3.77;;;2.07;;
15624;SDS011;7912;51.376;6.126;2023-07-13T11:18:19;3.40;;;1.93;;
15624;SDS011;7912;51.376;6.126;2023-07-13T11:20:51;4.83;;;2.20;;
15624;SDS011;7912;51.376;6.126;2023-07-13T11:24:14;3.47;;;2.10;;
15624;SDS011;7912;51.376;6.126;2023-07-13T11:31:58;3.40;;;2.00;;
15624;SDS011;7912;51.376;6.126;2023-07-13T11:34:33;4.10;;;2.07;;
15624;SDS011;7912;51.376;6.126;2023-07-13T11:37:10;3.27;;;2.00;;
15624;SDS011;7912;51.376;6.126;2023-07-13T11:39:43;3.23;;;2.17;;
15624;SDS011;7912;51.376;6.126;2023-07-13T11:42:14;3.60;;;1.87;;
15624;SDS011;7912;51.376;6.126;2023-07-13T11:44:48;3.37;;;2.10;;
15624;SDS011;7912;51.376;6.126;2023-07-13T11:47:39;2.50;;;1.80;;
15624;SDS011;7912;51.376;6.126;2023-07-13T11:50:16;3.23;;;1.63;;
15624;SDS011;7912;51.376;6.126;2023-07-13T11:52:48;4.27;;;1.70;;
15624;SDS011;7912;51.376;6.126;2023-07-13T11:55:21;4.10;;;1.90;;
15624;SDS011;7912;51.376;6.126;2023-07-13T11:57:51;3.40;;;2.00;;
15624;SDS011;7912;51.376;6.126;2023-07-13T12:00:26;2.70;;;1.80;;
15624;SDS011;7912;51.376;6.126;2023-07-13T12:03:00;4.83;;;2.10;;
15624;SDS011;7912;51.376;6.126;2023-07-13T12:05:31;3.50;;;2.27;;
15624;SDS011;7912;51.376;6.126;2023-07-13T12:07:59;2.73;;;1.87;;
15624;SDS011;7912;51.376;6.126;2023-07-13T12:10:55;3.93;;;1.83;;
15624;SDS011;7912;51.376;6.126;2023-07-13T12:13:35;2.43;;;1.90;;
15624;SDS011;7912;51.376;6.126;2023-07-13T12:16:48;2.80;;;2.00;;
15624;SDS011;7912;51.376;6.126;2023-07-13T12:19:00;3.07;;;1.87;;
15624;SDS011;7912;51.376;6.126;2023-07-13T12:21:33;3.20;;;1.90;;
15624;SDS011;7912;51.376;6.126;2023-07-13T12:24:12;3.30;;;1.93;;
15624;SDS011;7912;51.376;6.126;2023-07-13T12:26:53;3.60;;;1.83;;
15624;SDS011;7912;51.376;6.126;2023-07-13T12:29:31;3.67;;;1.97;;
15624;SDS011;7912;51.376;6.126;2023-07-13T12:31:59;2.13;;;1.80;;
15624;SDS011;7912;51.376;6.126;2023-07-13T12:34:27;3.20;;;1.80;;
15624;SDS011;7912;51.376;6.126;2023-07-13T12:36:55;3.10;;;1.63;;
15624;SDS011;7912;51.376;6.126;2023-07-13T12:42:22;3.60;;;1.70;;
15624;SDS011;7912;51.376;6.126;2023-07-13T12:44:56;4.37;;;2.13;;
15624;SDS011;7912;51.376;6.126;2023-07-13T12:47:47;4.13;;;1.80;;
15624;SDS011;7912;51.376;6.126;2023-07-13T12:50:23;4.93;;;1.90;;
15624;SDS011;7912;51.376;6.126;2023-07-13T12:52:59;2.70;;;1.90;;
15624;SDS011;7912;51.376;6.126;2023-07-13T12:55:40;2.30;;;1.80;;
15624;SDS011;7912;51.376;6.126;2023-07-13T12:58:25;4.40;;;1.90;;
15624;SDS011;7912;51.376;6.126;2023-07-13T13:01:05;3.03;;;2.00;;
15624;SDS011;7912;51.376;6.126;2023-07-13T13:03:40;3.43;;;2.23;;
15624;SDS011;7912;51.376;6.126;2023-07-13T13:08:53;3.70;;;1.90;;
15624;SDS011;7912;51.376;6.126;2023-07-13T13:11:26;2.50;;;1.97;;
15624;SDS011;7912;51.376;6.126;2023-07-13T13:13:57;3.07;;;1.90;;
15624;SDS011;7912;51.376;6.126;2023-07-13T13:16:34;3.23;;;2.10;;
15624;SDS011;7912;51.376;6.126;2023-07-13T13:19:14;2.90;;;1.97;;
15624;SDS011;7912;51.376;6.126;2023-07-13T13:21:55;3.57;;;2.10;;
15624;SDS011;7912;51.376;6.126;2023-07-13T13:24:25;3.17;;;2.00;;
15624;SDS011;7912;51.376;6.126;2023-07-13T13:26:55;5.00;;;2.20;;
15624;SDS011;7912;51.376;6.126;2023-07-13T13:29:24;3.30;;;1.80;;
15624;SDS011;7912;51.376;6.126;2023-07-13T13:31:55;2.60;;;1.67;;
15624;SDS011;7912;51.376;6.126;2023-07-13T13:34:25;2.83;;;1.67;;
15624;SDS011;7912;51.376;6.126;2023-07-13T13:36:53;3.40;;;1.80;;
15624;SDS011;7912;51.376;6.126;2023-07-13T13:39:35;4.83;;;1.80;;
15624;SDS011;7912;51.376;6.126;2023-07-13T13:42:20;1.80;;;1.67;;
15624;SDS011;7912;51.376;6.126;2023-07-13T13:44:52;4.97;;;2.30;;
15624;SDS011;7912;51.376;6.126;2023-07-13T13:47:30;4.23;;;2.40;;
15624;SDS011;7912;51.376;6.126;2023-07-13T13:50:36;2.13;;;1.63;;
15624;SDS011;7912;51.376;6.126;2023-07-13T13:52:56;2.87;;;2.00;;
15624;SDS011;7912;51.376;6.126;2023-07-13T13:55:24;3.60;;;1.80;;
15624;SDS011;7912;51.376;6.126;2023-07-13T13:57:52;3.10;;;2.10;;
15624;SDS011;7912;51.376;6.126;2023-07-13T14:00:20;3.03;;;2.17;;
15624;SDS011;7912;51.376;6.126;2023-07-13T14:02:48;4.33;;;1.97;;
15624;SDS011;7912;51.376;6.126;2023-07-13T14:05:21;3.43;;;2.00;;
15624;SDS011;7912;51.376;6.126;2023-07-13T14:07:53;5.20;;;2.40;;
15624;SDS011;7912;51.376;6.126;2023-07-13T14:10:23;6.53;;;2.20;;
15624;SDS011;7912;51.376;6.126;2023-07-13T14:12:52;6.20;;;2.43;;
15624;SDS011;7912;51.376;6.126;2023-07-13T14:15:25;2.97;;;2.10;;
15624;SDS011;7912;51.376;6.126;2023-07-13T14:17:57;2.77;;;2.20;;
15624;SDS011;7912;51.376;6.126;2023-07-13T14:20:25;3.17;;;2.03;;
15624;SDS011;7912;51.376;6.126;2023-07-13T14:22:52;3.33;;;2.40;;
15624;SDS011;7912;51.376;6.126;2023-07-13T14:25:24;2.47;;;2.03;;
15624;SDS011;7912;51.376;6.126;2023-07-13T14:30:52;2.77;;;2.13;;
15624;SDS011;7912;51.376;6.126;2023-07-13T14:33:23;2.73;;;2.23;;
15624;SDS011;7912;51.376;6.126;2023-07-13T14:35:51;3.90;;;2.30;;
15624;SDS011;7912;51.376;6.126;2023-07-13T14:38:21;3.37;;;2.70;;
15624;SDS011;7912;51.376;6.126;2023-07-13T14:40:49;2.87;;;2.20;;
15624;SDS011;7912;51.376;6.126;2023-07-13T14:43:16;4.90;;;2.80;;
15624;SDS011;7912;51.376;6.126;2023-07-13T14:45:46;4.60;;;3.80;;
15624;SDS011;7912;51.376;6.126;2023-07-13T14:48:18;3.20;;;2.70;;
15624;SDS011;7912;51.376;6.126;2023-07-13T14:50:53;3.17;;;2.50;;
15624;SDS011;7912;51.376;6.126;2023-07-13T14:53:24;3.50;;;2.30;;
15624;SDS011;7912;51.376;6.126;2023-07-13T14:55:56;4.47;;;2.50;;
15624;SDS011;7912;51.376;6.126;2023-07-13T14:58:25;2.70;;;2.07;;
15624;SDS011;7912;51.376;6.126;2023-07-13T15:00:54;4.13;;;2.60;;
15624;SDS011;7912;51.376;6.126;2023-07-13T15:03:28;2.40;;;2.20;;
15624;SDS011;7912;51.376;6.126;2023-07-13T15:05:56;3.07;;;2.60;;
15624;SDS011;7912;51.376;6.126;2023-07-13T15:08:29;5.17;;;3.17;;
15624;SDS011;7912;51.376;6.126;2023-07-13T15:11:02;5.07;;;2.77;;
15624;SDS011;7912;51.376;6.126;2023-07-13T15:13:31;5.23;;;2.67;;
15624;SDS011;7912;51.376;6.126;2023-07-13T15:15:58;3.37;;;2.37;;
15624;SDS011;7912;51.376;6.126;2023-07-13T15:18:27;2.83;;;2.40;;
15624;SDS011;7912;51.376;6.126;2023-07-13T15:20:55;4.30;;;2.40;;
15624;SDS011;7912;51.376;6.126;2023-07-13T15:23:24;2.67;;;2.17;;
15624;SDS011;7912;51.376;6.126;2023-07-13T15:25:52;3.93;;;2.40;;
15624;SDS011;7912;51.376;6.126;2023-07-13T15:28:20;3.60;;;2.33;;
15624;SDS011;7912;51.376;6.126;2023-07-13T15:30:48;3.23;;;2.20;;
15624;SDS011;7912;51.376;6.126;2023-07-13T15:33:26;3.30;;;2.43;;
15624;SDS011;7912;51.376;6.126;2023-07-13T15:35:56;3.10;;;2.23;;
15624;SDS011;7912;51.376;6.126;2023-07-13T15:38:27;2.83;;;2.17;;
15624;SDS011;7912;51.376;6.126;2023-07-13T15:40:57;2.80;;;2.20;;
15624;SDS011;7912;51.376;6.126;2023-07-13T15:43:25;3.00;;;2.20;;
15624;SDS011;7912;51.376;6.126;2023-07-13T15:45:53;2.60;;;2.07;;
15624;SDS011;7912;51.376;6.126;2023-07-13T15:48:22;4.33;;;2.30;;
15624;SDS011;7912;51.376;6.126;2023-07-13T15:50:54;2.87;;;2.20;;
15624;SDS011;7912;51.376;6.126;2023-07-13T15:53:34;2.43;;;2.10;;
15624;SDS011;7912;51.376;6.126;2023-07-13T15:56:18;5.07;;;2.13;;
15624;SDS011;7912;51.376;6.126;2023-07-13T15:58:52;2.10;;;1.90;;
15624;SDS011;7912;51.376;6.126;2023-07-13T16:01:20;2.90;;;2.07;;
15624;SDS011;7912;51.376;6.126;2023-07-13T16:03:51;2.73;;;2.17;;
15624;SDS011;7912;51.376;6.126;2023-07-13T16:06:20;2.93;;;2.63;;
15624;SDS011;7912;51.376;6.126;2023-07-13T16:08:55;3.03;;;2.47;;
15624;SDS011;7912;51.376;6.126;2023-07-13T16:11:24;2.90;;;2.20;;
15624;SDS011;7912;51.376;6.126;2023-07-13T16:13:59;2.60;;;2.13;;
15624;SDS011;7912;51.376;6.126;2023-07-13T16:16:27;2.43;;;2.00;;
15624;SDS011;7912;51.376;6.126;2023-07-13T16:18:59;3.47;;;1.83;;
15624;SDS011;7912;51.376;6.126;2023-07-13T16:21:34;3.20;;;2.07;;
15624;SDS011;7912;51.376;6.126;2023-07-13T16:27:21;2.30;;;1.80;;
15624;SDS011;7912;51.376;6.126;2023-07-13T16:29:50;2.80;;;2.40;;
15624;SDS011;7912;51.376;6.126;2023-07-13T16:32:17;3.87;;;3.03;;
15624;SDS011;7912;51.376;6.126;2023-07-13T16:34:45;5.27;;;2.43;;
15624;SDS011;7912;51.376;6.126;2023-07-13T16:37:16;2.27;;;2.00;;
15624;SDS011;7912;51.376;6.126;2023-07-13T16:39:54;2.40;;;2.20;;
15624;SDS011;7912;51.376;6.126;2023-07-13T16:42:25;3.13;;;1.97;;
15624;SDS011;7912;51.376;6.126;2023-07-13T16:44:53;3.87;;;1.97;;
15624;SDS011;7912;51.376;6.126;2023-07-13T16:47:20;2.63;;;2.00;;
15624;SDS011;7912;51.376;6.126;2023-07-13T16:49:50;2.20;;;2.00;;